Time;durP1;ratioP1;P1;durP2;ratioP2;P2;SDS_P1;SDS_P2;PMS_P1;PMS_P2;Temp;Humidity;BMP_temperature;BMP_pressure;BME280_temperature;BME280_humidity;BME280_pressure;Samples;Min_cycle;Max_cycle;Signal;HPM_P1;HPM_P2
2022/09/09 00:02:04;;;;;;;12.15;8.50;;;;;;;;;;4995082;28;20041;-80
2022/09/09 00:04:37;;;;;;;9.43;7.75;;;;;;;;;;5009831;28;20635;-81
2022/09/09 00:07:21;;;;;;;15.00;8.40;;;;;;;;;;5010961;28;20049;-81
2022/09/09 00:09:49;;;;;;;11.77;7.82;;;;;;;;;;5010656;28;20045;-83
2022/09/09 00:12:34;;;;;;;10.32;7.47;;;;;;;;;;4994558;28;20029;-80
2022/09/09 00:15:07;;;;;;;10.65;7.93;;;;;;;;;;4994474;28;20033;-80
2022/09/09 00:17:41;;;;;;;10.40;7.78;;;;;;;;;;4992501;28;20441;-82
2022/09/09 00:20:19;;;;;;;10.48;7.47;;;;;;;;;;5010148;28;20037;-79
2022/09/09 00:22:53;;;;;;;;;;;;;;;;;;4993878;28;20038;-80
2022/09/09 00:25:24;;;;;;;10.68;8.07;;;;;;;;;;4993248;28;19917;-80
2022/09/09 00:27:50;;;;;;;10.27;7.38;;;;;;;;;;5002379;28;20038;-80
2022/09/09 00:30:23;;;;;;;12.18;8.20;;;;;;;;;;4992501;28;20068;-80
2022/09/09 00:32:54;;;;;;;11.73;8.02;;;;;;;;;;4993864;28;20088;-80
2022/09/09 00:35:25;;;;;;;11.77;7.93;;;;;;;;;;5009300;28;20091;-80
2022/09/09 00:37:53;;;;;;;10.80;8.20;;;;;;;;;;5026944;28;20041;-82
2022/09/09 00:40:32;;;;;;;10.90;8.23;;;;;;;;;;5008901;28;20537;-81
2022/09/09 00:43:24;;;;;;;11.05;8.13;;;;;;;;;;4993755;28;20112;-81
2022/09/09 00:45:52;;;;;;;11.10;7.72;;;;;;;;;;4997700;28;20052;-81
2022/09/09 00:48:18;;;;;;;12.55;8.07;;;;;;;;;;5026437;28;20408;-81
2022/09/09 00:50:55;;;;;;;13.63;8.77;;;;;;;;;;4994717;28;20037;-81
2022/09/09 00:53:51;;;;;;;10.60;8.07;;;;;;;;;;5010057;28;20048;-80
2022/09/09 00:56:25;;;;;;;10.90;8.32;;;;;;;;;;5006904;28;20037;-82
2022/09/09 00:59:10;;;;;;;10.50;8.10;;;;;;;;;;5010196;28;20044;-82
2022/09/09 01:01:36;;;;;;;12.73;8.40;;;;;;;;;;5008886;28;20041;-80
2022/09/09 01:04:05;;;;;;;10.73;8.30;;;;;;;;;;4995630;28;20087;-81
2022/09/09 01:06:36;;;;;;;11.70;8.18;;;;;;;;;;4992988;28;20041;-80
2022/09/09 01:09:20;;;;;;;10.88;8.60;;;;;;;;;;4994743;28;20099;-82
2022/09/09 01:12:01;;;;;;;12.32;8.80;;;;;;;;;;5008797;28;20048;-79
2022/09/09 01:14:35;;;;;;;11.43;8.63;;;;;;;;;;5010242;28;20041;-81
2022/09/09 01:17:09;;;;;;;12.30;8.48;;;;;;;;;;5014463;28;20044;-80
2022/09/09 01:19:44;;;;;;;11.05;8.48;;;;;;;;;;5003738;28;20496;-80
2022/09/09 01:22:32;;;;;;;11.95;8.40;;;;;;;;;;5026191;28;20060;-81
2022/09/09 01:25:16;;;;;;;11.63;8.57;;;;;;;;;;4988931;28;20045;-80
2022/09/09 01:27:42;;;;;;;11.25;8.35;;;;;;;;;;5009201;28;20048;-80
2022/09/09 01:30:13;;;;;;;11.38;8.13;;;;;;;;;;4991604;28;20492;-79
2022/09/09 01:32:48;;;;;;;12.38;9.00;;;;;;;;;;5008923;28;20496;-79
2022/09/09 01:35:51;;;;;;;13.38;8.05;;;;;;;;;;5007226;28;20065;-80
2022/09/09 01:38:17;;;;;;;11.80;8.60;;;;;;;;;;5023997;28;20481;-80
2022/09/09 01:40:42;;;;;;;11.00;8.07;;;;;;;;;;4989905;28;20044;-81
2022/09/09 01:43:08;;;;;;;10.95;8.38;;;;;;;;;;4994252;28;20489;-81
2022/09/09 01:45:33;;;;;;;11.98;8.52;;;;;;;;;;4992526;28;20488;-82
2022/09/09 01:48:00;;;;;;;11.57;8.30;;;;;;;;;;4994001;28;20043;-82
2022/09/09 01:50:25;;;;;;;11.40;8.40;;;;;;;;;;4995318;28;20037;-81
2022/09/09 01:52:59;;;;;;;11.70;8.18;;;;;;;;;;4993328;28;20089;-81
2022/09/09 01:55:37;;;;;;;12.73;7.93;;;;;;;;;;4991738;28;20095;-80
2022/09/09 01:58:11;;;;;;;12.05;8.20;;;;;;;;;;4987437;28;20040;-81
2022/09/09 02:00:42;;;;;;;11.73;8.43;;;;;;;;;;4991132;28;20030;-81
2022/09/09 02:03:21;;;;;;;11.38;7.82;;;;;;;;;;4991930;28;20038;-81
2022/09/09 02:06:01;;;;;;;12.57;8.85;;;;;;;;;;4988815;28;20045;-82
2022/09/09 02:08:31;;;;;;;11.90;7.70;;;;;;;;;;4988071;28;20045;-81
2022/09/09 02:11:03;;;;;;;12.93;8.13;;;;;;;;;;4989313;28;20468;-81
2022/09/09 02:13:29;;;;;;;11.48;8.15;;;;;;;;;;5021611;28;20554;-81
2022/09/09 02:16:15;;;;;;;12.27;8.48;;;;;;;;;;5004731;28;20041;-81
2022/09/09 02:18:57;;;;;;;11.00;7.93;;;;;;;;;;5004069;28;20057;-82
2022/09/09 02:21:23;;;;;;;10.95;7.75;;;;;;;;;;5005837;28;20501;-82
2022/09/09 02:23:51;;;;;;;10.77;7.80;;;;;;;;;;5004678;28;20044;-81
2022/09/09 02:26:21;;;;;;;13.00;8.23;;;;;;;;;;4987937;28;20105;-82
2022/09/09 02:28:49;;;;;;;12.10;8.05;;;;;;;;;;5005407;28;20087;-82
2022/09/09 02:31:18;;;;;;;11.23;8.30;;;;;;;;;;4986859;28;20053;-81
2022/09/09 02:33:47;;;;;;;11.68;8.25;;;;;;;;;;4987946;28;20042;-81
2022/09/09 02:36:18;;;;;;;14.15;7.70;;;;;;;;;;4990852;28;20172;-83
2022/09/09 02:38:52;;;;;;;11.70;7.75;;;;;;;;;;5008978;28;20052;-86
2022/09/09 02:41:26;;;;;;;12.80;8.02;;;;;;;;;;5001045;28;20620;-85
2022/09/09 02:43:52;;;;;;;12.25;8.00;;;;;;;;;;5008187;28;20121;-84
2022/09/09 02:46:32;;;;;;;10.82;7.50;;;;;;;;;;5008329;28;20160;-85
2022/09/09 02:49:05;;;;;;;12.10;8.27;;;;;;;;;;5008462;28;20052;-84
2022/09/09 02:51:49;;;;;;;14.45;8.70;;;;;;;;;;5004953;28;20061;-83
2022/09/09 02:54:23;;;;;;;12.93;8.02;;;;;;;;;;5005600;28;20053;-84
2022/09/09 02:56:56;;;;;;;12.27;7.55;;;;;;;;;;5007885;28;20383;-82
2022/09/09 02:59:22;;;;;;;13.20;8.45;;;;;;;;;;5000409;28;20037;-83
2022/09/09 03:01:48;;;;;;;12.55;7.53;;;;;;;;;;5009039;28;20041;-84
2022/09/09 03:04:13;;;;;;;12.10;8.27;;;;;;;;;;5007781;28;20041;-85
2022/09/09 03:06:39;;;;;;;13.18;7.95;;;;;;;;;;5008387;28;20096;-85
2022/09/09 03:09:05;;;;;;;10.95;7.40;;;;;;;;;;5006097;28;20036;-85
2022/09/09 03:11:30;;;;;;;11.02;7.88;;;;;;;;;;5014633;28;20029;-91
2022/09/09 03:13:56;;;;;;;11.57;7.95;;;;;;;;;;5008349;28;20038;-88
2022/09/09 03:16:24;;;;;;;13.88;8.13;;;;;;;;;;4985965;28;20092;-88
2022/09/09 03:18:49;;;;;;;12.05;8.07;;;;;;;;;;4995601;28;20045;-87
2022/09/09 03:21:15;;;;;;;13.15;8.32;;;;;;;;;;5006374;28;20034;-88
2022/09/09 03:23:40;;;;;;;11.43;8.10;;;;;;;;;;4991223;28;20491;-89
2022/09/09 03:26:08;;;;;;;11.75;7.68;;;;;;;;;;4989548;28;20088;-85
2022/09/09 03:28:33;;;;;;;;;;;;;;;;;;5013555;28;20048;-84
2022/09/09 03:31:03;;;;;;;12.88;8.70;;;;;;;;;;5002499;28;19922;-84
2022/09/09 03:33:29;;;;;;;13.45;7.75;;;;;;;;;;5013012;28;20044;-84
2022/09/09 03:35:56;;;;;;;11.27;8.18;;;;;;;;;;5011325;28;20057;-84
2022/09/09 03:38:25;;;;;;;10.80;7.80;;;;;;;;;;5001045;28;20551;-84
2022/09/09 03:40:55;;;;;;;13.50;8.10;;;;;;;;;;5011275;28;20481;-84
2022/09/09 03:43:26;;;;;;;10.38;7.72;;;;;;;;;;5012050;28;20053;-84
2022/09/09 03:45:52;;;;;;;10.93;7.63;;;;;;;;;;4994720;28;20037;-84
2022/09/09 03:48:19;;;;;;;10.73;8.07;;;;;;;;;;5028201;28;20042;-84
2022/09/09 03:50:47;;;;;;;11.93;7.72;;;;;;;;;;5012313;28;20065;-84
2022/09/09 03:53:14;;;;;;;12.30;7.43;;;;;;;;;;4987717;28;20454;-84
2022/09/09 03:55:41;;;;;;;13.50;8.03;;;;;;;;;;5011809;28;20036;-84
2022/09/09 03:58:07;;;;;;;12.27;7.50;;;;;;;;;;4982823;28;20120;-84
2022/09/09 04:00:33;;;;;;;12.20;7.75;;;;;;;;;;5011570;28;20306;-82
2022/09/09 04:02:58;;;;;;;12.60;8.25;;;;;;;;;;5012292;28;20488;-82
2022/09/09 04:05:24;;;;;;;11.23;7.45;;;;;;;;;;4993890;28;20065;-82
2022/09/09 04:07:51;;;;;;;10.18;7.40;;;;;;;;;;4988748;28;20041;-83
2022/09/09 04:10:19;;;;;;;11.63;7.47;;;;;;;;;;5005727;28;20048;-82
2022/09/09 04:12:44;;;;;;;12.35;7.40;;;;;;;;;;5010851;28;20122;-82
2022/09/09 04:15:10;;;;;;;17.17;8.32;;;;;;;;;;5000163;28;20108;-82
2022/09/09 04:17:36;;;;;;;13.90;7.10;;;;;;;;;;4989226;28;20038;-82
2022/09/09 04:20:02;;;;;;;11.38;7.72;;;;;;;;;;4999002;28;20041;-82
2022/09/09 04:22:27;;;;;;;11.02;7.18;;;;;;;;;;5001092;28;20028;-82
2022/09/09 04:24:53;;;;;;;10.65;7.72;;;;;;;;;;5002247;28;20037;-82
2022/09/09 04:27:18;;;;;;;10.15;7.47;;;;;;;;;;5000035;28;20037;-83
2022/09/09 04:29:44;;;;;;;9.38;6.97;;;;;;;;;;5006803;28;20049;-83
2022/09/09 04:32:12;;;;;;;12.00;7.70;;;;;;;;;;5008086;28;20481;-86
2022/09/09 04:34:38;;;;;;;11.27;8.02;;;;;;;;;;4987069;28;20612;-87
2022/09/09 04:37:03;;;;;;;9.82;7.18;;;;;;;;;;4989034;28;20109;-87
2022/09/09 04:39:28;;;;;;;10.55;7.63;;;;;;;;;;5010559;28;20040;-86
2022/09/09 04:41:54;;;;;;;12.15;7.53;;;;;;;;;;4985858;28;20041;-87
2022/09/09 04:44:19;;;;;;;12.20;7.40;;;;;;;;;;4989419;28;20030;-87
2022/09/09 04:46:45;;;;;;;13.30;7.65;;;;;;;;;;4975537;28;20045;-86
2022/09/09 04:49:10;;;;;;;10.35;7.65;;;;;;;;;;5005222;28;20073;-84
2022/09/09 04:51:35;;;;;;;10.63;7.55;;;;;;;;;;4991405;28;20109;-83
2022/09/09 04:54:01;;;;;;;13.13;7.60;;;;;;;;;;4998290;28;20512;-84
2022/09/09 04:56:29;;;;;;;11.30;7.65;;;;;;;;;;4990570;28;20431;-83
2022/09/09 04:58:55;;;;;;;12.00;7.60;;;;;;;;;;5005555;28;20512;-84
2022/09/09 05:01:21;;;;;;;11.05;7.47;;;;;;;;;;4984223;28;20762;-83
2022/09/09 05:03:47;;;;;;;11.75;6.80;;;;;;;;;;4983159;28;20133;-83
2022/09/09 05:06:18;;;;;;;10.88;7.30;;;;;;;;;;4988989;28;20121;-84
2022/09/09 05:08:44;;;;;;;12.13;7.05;;;;;;;;;;4989674;28;20046;-83
2022/09/09 05:11:30;;;;;;;11.10;6.68;;;;;;;;;;5005913;28;20409;-83
2022/09/09 05:13:56;;;;;;;10.25;7.30;;;;;;;;;;4989270;28;20096;-83
2022/09/09 05:16:23;;;;;;;11.43;7.93;;;;;;;;;;5003661;28;20121;-82
2022/09/09 05:18:49;;;;;;;12.48;7.43;;;;;;;;;;4983586;28;20034;-82
2022/09/09 05:21:16;;;;;;;10.18;7.13;;;;;;;;;;4979798;28;20401;-83
2022/09/09 05:23:41;;;;;;;10.57;6.00;;;;;;;;;;4991072;28;20870;-85
2022/09/09 05:26:13;;;;;;;9.27;6.35;;;;;;;;;;4991209;28;20033;-85
2022/09/09 05:28:38;;;;;;;11.32;6.78;;;;;;;;;;5004362;28;20461;-84
2022/09/09 05:31:07;;;;;;;9.23;6.20;;;;;;;;;;5003575;28;20046;-85
2022/09/09 05:33:34;;;;;;;10.43;6.03;;;;;;;;;;5005292;28;20064;-83
2022/09/09 05:36:02;;;;;;;10.98;5.97;;;;;;;;;;4980742;28;20030;-85
2022/09/09 05:38:28;;;;;;;8.02;6.30;;;;;;;;;;5005301;28;20463;-85
2022/09/09 05:40:55;;;;;;;11.50;6.40;;;;;;;;;;4988166;28;20440;-85
2022/09/09 05:43:21;;;;;;;9.95;6.22;;;;;;;;;;4989459;28;20057;-86
2022/09/09 05:46:04;;;;;;;13.20;7.00;;;;;;;;;;4988776;28;20501;-85
2022/09/09 05:48:30;;;;;;;9.00;5.72;;;;;;;;;;4984877;28;20034;-82
2022/09/09 05:50:56;;;;;;;8.68;5.15;;;;;;;;;;4997399;28;20404;-85
2022/09/09 05:53:21;;;;;;;8.75;5.43;;;;;;;;;;5002844;28;20064;-84
2022/09/09 05:55:47;;;;;;;9.35;5.93;;;;;;;;;;5000185;28;20042;-87
2022/09/09 05:58:14;;;;;;;8.40;5.13;;;;;;;;;;5004594;28;20116;-86
2022/09/09 06:00:39;;;;;;;7.35;5.45;;;;;;;;;;4988831;28;20033;-85
2022/09/09 06:03:05;;;;;;;10.77;5.10;;;;;;;;;;4990989;28;20378;-84
2022/09/09 06:05:30;;;;;;;8.68;5.82;;;;;;;;;;4987140;28;20459;-85
2022/09/09 06:07:55;;;;;;;8.13;5.45;;;;;;;;;;4997959;28;20496;-85
2022/09/09 06:10:22;;;;;;;6.82;4.68;;;;;;;;;;4995886;28;20049;-84
2022/09/09 06:12:48;;;;;;;6.85;4.72;;;;;;;;;;5004933;28;20108;-84
2022/09/09 06:15:13;;;;;;;7.07;4.97;;;;;;;;;;4987290;28;20037;-84
2022/09/09 06:17:38;;;;;;;6.38;4.35;;;;;;;;;;4989334;28;20040;-84
2022/09/09 06:20:04;;;;;;;8.68;4.25;;;;;;;;;;5020698;28;20038;-84
2022/09/09 06:22:30;;;;;;;5.93;4.10;;;;;;;;;;4987726;28;20038;-84
2022/09/09 06:24:55;;;;;;;9.77;4.20;;;;;;;;;;5004438;28;20504;-84
2022/09/09 06:27:21;;;;;;;10.82;3.92;;;;;;;;;;5003675;28;20121;-84
2022/09/09 06:29:46;;;;;;;7.57;3.90;;;;;;;;;;5020950;28;20042;-85
2022/09/09 06:32:11;;;;;;;5.57;3.50;;;;;;;;;;4987637;28;21145;-84
2022/09/09 06:34:37;;;;;;;5.90;2.88;;;;;;;;;;4986513;28;20432;-85
2022/09/09 06:37:02;;;;;;;4.55;3.00;;;;;;;;;;4981453;28;20329;-84
2022/09/09 06:39:28;;;;;;;6.97;2.80;;;;;;;;;;4988698;28;20073;-85
2022/09/09 06:41:53;;;;;;;6.07;2.70;;;;;;;;;;4986821;28;20509;-84
2022/09/09 06:44:19;;;;;;;6.05;2.90;;;;;;;;;;4981648;28;20037;-84
2022/09/09 06:46:47;;;;;;;6.65;2.80;;;;;;;;;;4995459;28;20034;-85
2022/09/09 06:49:13;;;;;;;8.18;2.80;;;;;;;;;;4996786;28;20034;-85
2022/09/09 06:51:42;;;;;;;5.93;2.92;;;;;;;;;;4992139;28;20037;-85
2022/09/09 06:54:08;;;;;;;5.05;2.70;;;;;;;;;;5003599;28;20097;-84
2022/09/09 06:56:36;;;;;;;5.97;2.40;;;;;;;;;;5019919;28;20056;-85
2022/09/09 06:59:08;;;;;;;5.47;2.55;;;;;;;;;;5002324;28;20033;-85
2022/09/09 07:01:35;;;;;;;8.98;2.20;;;;;;;;;;4987467;28;20486;-85
2022/09/09 07:04:02;;;;;;;3.17;1.80;;;;;;;;;;4983630;28;20038;-85
2022/09/09 07:06:30;;;;;;;7.88;2.30;;;;;;;;;;4989407;28;20555;-84
2022/09/09 07:08:58;;;;;;;6.10;1.90;;;;;;;;;;5006508;28;20219;-86
2022/09/09 07:11:26;;;;;;;8.35;2.72;;;;;;;;;;4990146;28;20144;-85
2022/09/09 07:13:52;;;;;;;4.28;1.65;;;;;;;;;;5006940;28;20488;-85
2022/09/09 07:16:20;;;;;;;7.65;1.73;;;;;;;;;;4988870;28;20209;-85
2022/09/09 07:18:45;;;;;;;4.45;1.83;;;;;;;;;;5022762;28;20049;-85
2022/09/09 07:21:12;;;;;;;4.35;1.48;;;;;;;;;;4989482;28;20144;-85
2022/09/09 07:23:38;;;;;;;4.53;1.80;;;;;;;;;;4991475;28;20496;-85
2022/09/09 07:26:09;;;;;;;6.80;1.95;;;;;;;;;;4989569;28;20116;-85
2022/09/09 07:28:34;;;;;;;2.50;1.10;;;;;;;;;;5023086;28;20043;-82
2022/09/09 07:31:02;;;;;;;4.47;1.40;;;;;;;;;;4997322;28;20496;-85
2022/09/09 07:33:30;;;;;;;4.45;1.15;;;;;;;;;;4998880;28;20108;-85
2022/09/09 07:36:03;;;;;;;3.97;1.30;;;;;;;;;;4989870;28;20408;-85
2022/09/09 07:38:29;;;;;;;3.33;1.17;;;;;;;;;;5005123;28;20053;-85
2022/09/09 07:41:03;;;;;;;6.45;1.40;;;;;;;;;;4992414;28;20462;-85
2022/09/09 07:43:28;;;;;;;6.43;2.10;;;;;;;;;;5022455;28;20029;-85
2022/09/09 07:46:01;;;;;;;6.65;1.92;;;;;;;;;;4989400;28;20050;-85
2022/09/09 07:48:27;;;;;;;7.32;2.17;;;;;;;;;;4992458;28;20037;-85
2022/09/09 07:50:52;;;;;;;5.28;1.58;;;;;;;;;;5001083;28;20026;-85
2022/09/09 07:53:19;;;;;;;4.68;1.27;;;;;;;;;;4992358;28;20060;-85
2022/09/09 07:55:45;;;;;;;3.70;1.00;;;;;;;;;;4991941;28;20511;-84
2022/09/09 07:58:10;;;;;;;6.05;1.48;;;;;;;;;;4990245;28;20033;-85
2022/09/09 08:00:36;;;;;;;3.78;1.30;;;;;;;;;;4993073;28;20033;-84
2022/09/09 08:03:01;;;;;;;3.17;0.98;;;;;;;;;;4995817;28;20057;-85
2022/09/09 08:05:27;;;;;;;3.55;1.30;;;;;;;;;;5014329;28;20123;-84
2022/09/09 08:07:52;;;;;;;2.88;1.00;;;;;;;;;;4993218;28;20029;-85
2022/09/09 08:10:18;;;;;;;3.75;1.20;;;;;;;;;;4991989;28;20593;-85
2022/09/09 08:12:43;;;;;;;3.22;1.15;;;;;;;;;;4999779;28;20033;-85
2022/09/09 08:15:30;;;;;;;5.15;1.25;;;;;;;;;;4995057;28;20048;-85
2022/09/09 08:17:56;;;;;;;5.03;1.40;;;;;;;;;;4900635;29;20047;-85
2022/09/09 08:20:23;;;;;;;4.70;1.27;;;;;;;;;;4885551;29;20552;-85
2022/09/09 08:22:49;;;;;;;5.53;1.33;;;;;;;;;;4885457;29;20116;-85
2022/09/09 08:25:15;;;;;;;3.03;1.15;;;;;;;;;;4907294;29;20132;-85
2022/09/09 08:27:40;;;;;;;3.60;1.52;;;;;;;;;;4902171;29;20131;-85
2022/09/09 08:30:10;;;;;;;3.03;1.10;;;;;;;;;;4876281;29;20043;-85
2022/09/09 08:32:38;;;;;;;4.70;1.08;;;;;;;;;;4906011;29;20051;-84
2022/09/09 08:35:04;;;;;;;4.10;1.50;;;;;;;;;;4886667;29;20036;-85
2022/09/09 08:37:29;;;;;;;3.25;1.27;;;;;;;;;;4868563;29;20550;-85
2022/09/09 08:39:54;;;;;;;4.70;1.17;;;;;;;;;;4885659;29;20123;-85
2022/09/09 08:42:31;;;;;;;3.42;1.20;;;;;;;;;;4884439;29;20043;-84
2022/09/09 08:45:24;;;;;;;4.07;1.20;;;;;;;;;;4875211;29;20044;-85
2022/09/09 08:48:00;;;;;;;3.80;1.00;;;;;;;;;;4868292;29;20048;-85
2022/09/09 08:50:31;;;;;;;4.53;1.20;;;;;;;;;;4890585;29;20119;-84
2022/09/09 08:53:05;;;;;;;2.42;1.35;;;;;;;;;;4906286;29;20136;-85
2022/09/09 08:55:54;;;;;;;5.20;1.10;;;;;;;;;;4970248;28;20382;-85
2022/09/09 08:58:22;;;;;;;5.35;1.08;;;;;;;;;;4996172;28;20044;-86
2022/09/09 09:00:50;;;;;;;3.60;1.05;;;;;;;;;;5006805;28;20088;-86
2022/09/09 09:03:25;;;;;;;3.10;0.90;;;;;;;;;;5024757;28;20045;-85
2022/09/09 09:05:54;;;;;;;3.58;1.00;;;;;;;;;;5022888;28;20085;-86
2022/09/09 09:08:26;;;;;;;5.82;0.95;;;;;;;;;;4988791;28;20041;-86
2022/09/09 09:10:56;;;;;;;6.22;1.10;;;;;;;;;;4991361;28;20565;-85
2022/09/09 09:13:52;;;;;;;5.03;1.00;;;;;;;;;;4995023;28;20064;-86
2022/09/09 09:16:29;;;;;;;2.75;0.90;;;;;;;;;;5006088;28;20065;-85
2022/09/09 09:18:54;;;;;;;2.67;0.70;;;;;;;;;;4992880;28;20034;-84
2022/09/09 09:21:37;;;;;;;3.38;0.77;;;;;;;;;;4992795;28;20377;-84
2022/09/09 09:24:09;;;;;;;3.78;0.65;;;;;;;;;;5024465;28;20044;-84
2022/09/09 09:26:35;;;;;;;3.38;0.95;;;;;;;;;;4999139;28;20045;-84
2022/09/09 09:29:11;;;;;;;2.97;0.50;;;;;;;;;;4990524;28;20046;-83
2022/09/09 09:31:37;;;;;;;3.30;0.60;;;;;;;;;;5024396;28;20038;-84
2022/09/09 09:34:02;;;;;;;2.58;0.60;;;;;;;;;;4990815;28;20026;-85
2022/09/09 09:36:46;;;;;;;3.50;0.68;;;;;;;;;;4998612;28;20512;-86
2022/09/09 09:39:29;;;;;;;4.22;0.75;;;;;;;;;;4991402;28;20044;-86
2022/09/09 09:41:55;;;;;;;2.90;0.70;;;;;;;;;;5007921;28;20034;-88
2022/09/09 09:44:20;;;;;;;1.55;0.50;;;;;;;;;;5007353;28;20036;-88
2022/09/09 09:46:45;;;;;;;2.47;0.50;;;;;;;;;;5014736;28;20144;-87
2022/09/09 09:49:13;;;;;;;2.78;0.65;;;;;;;;;;5014442;28;20336;-87
2022/09/09 09:51:40;;;;;;;2.13;0.60;;;;;;;;;;5001292;28;20033;-90
2022/09/09 09:54:18;;;;;;;3.22;0.50;;;;;;;;;;5013776;28;20041;-88
2022/09/09 09:56:44;;;;;;;3.35;0.60;;;;;;;;;;5027799;28;20079;-91
2022/09/09 09:59:28;;;;;;;2.00;0.50;;;;;;;;;;5013089;28;20033;-90
2022/09/09 10:01:54;;;;;;;3.40;0.70;;;;;;;;;;5012114;28;20040;-89
2022/09/09 10:04:23;;;;;;;2.45;0.60;;;;;;;;;;4989998;28;20509;-90
2022/09/09 10:06:50;;;;;;;5.18;0.88;;;;;;;;;;5001180;28;20107;-88
2022/09/09 10:09:23;;;;;;;2.65;0.63;;;;;;;;;;4990145;28;20112;-87
2022/09/09 10:12:00;;;;;;;3.35;0.80;;;;;;;;;;4990769;28;20045;-81
2022/09/09 10:14:59;;;;;;;4.97;0.80;;;;;;;;;;4989957;28;20470;-79
2022/09/09 10:17:41;;;;;;;2.97;0.70;;;;;;;;;;5016924;28;20100;-79
2022/09/09 10:20:32;;;;;;;1.88;0.70;;;;;;;;;;5005776;28;20038;-81
2022/09/09 10:23:19;;;;;;;4.38;0.77;;;;;;;;;;4990689;28;20048;-80
2022/09/09 10:26:08;;;;;;;3.03;0.70;;;;;;;;;;5004094;28;20976;-88
2022/09/09 10:28:58;;;;;;;3.95;0.85;;;;;;;;;;5007675;28;20080;-83
2022/09/09 10:31:49;;;;;;;3.45;0.80;;;;;;;;;;5022762;28;20038;-84
2022/09/09 10:34:23;;;;;;;2.85;0.68;;;;;;;;;;4989096;28;20037;-86
2022/09/09 10:36:50;;;;;;;2.05;0.52;;;;;;;;;;5021967;28;20125;-85
2022/09/09 10:39:28;;;;;;;4.22;0.80;;;;;;;;;;5005919;28;20455;-84
2022/09/09 10:42:07;;;;;;;2.45;0.60;;;;;;;;;;5020630;28;20038;-87
2022/09/09 10:44:35;;;;;;;3.60;0.50;;;;;;;;;;4989274;28;20433;-85
2022/09/09 10:47:28;;;;;;;3.75;0.70;;;;;;;;;;5004069;28;20053;-85
2022/09/09 10:49:59;;;;;;;4.00;0.50;;;;;;;;;;4988089;28;20100;-85
2022/09/09 10:52:52;;;;;;;4.28;0.70;;;;;;;;;;4996775;28;20048;-84
2022/09/09 10:55:19;;;;;;;2.85;0.50;;;;;;;;;;5002295;28;20060;-85
2022/09/09 10:57:49;;;;;;;4.72;0.98;;;;;;;;;;4987846;28;20045;-85
2022/09/09 11:00:24;;;;;;;2.42;0.50;;;;;;;;;;5002878;28;20038;-84
2022/09/09 11:03:06;;;;;;;2.33;0.40;;;;;;;;;;5002673;28;20044;-85
2022/09/09 11:05:41;;;;;;;1.20;0.30;;;;;;;;;;4987999;28;20575;-85
2022/09/09 11:08:19;;;;;;;2.08;0.57;;;;;;;;;;4987693;28;20038;-86
2022/09/09 11:11:03;;;;;;;1.63;0.30;;;;;;;;;;4993427;28;20483;-85
2022/09/09 11:13:48;;;;;;;2.40;0.40;;;;;;;;;;4986692;28;20570;-85
2022/09/09 11:16:29;;;;;;;1.83;0.43;;;;;;;;;;5001444;28;20536;-85
2022/09/09 11:19:13;;;;;;;2.85;0.43;;;;;;;;;;4993496;28;20519;-85
2022/09/09 11:21:43;;;;;;;3.10;0.40;;;;;;;;;;4986232;28;20119;-85
2022/09/09 11:24:18;;;;;;;3.00;0.55;;;;;;;;;;4983667;28;20069;-85
2022/09/09 11:26:51;;;;;;;1.90;0.30;;;;;;;;;;5003002;28;20038;-85
2022/09/09 11:29:47;;;;;;;2.10;0.30;;;;;;;;;;5002967;28;20113;-86
2022/09/09 11:32:47;;;;;;;2.58;0.32;;;;;;;;;;5023019;28;20037;-86
2022/09/09 11:35:34;;;;;;;2.42;0.40;;;;;;;;;;5007053;28;20409;-87
2022/09/09 11:38:21;;;;;;;2.90;0.50;;;;;;;;;;5007825;28;20038;-86
2022/09/09 11:40:47;;;;;;;;;;;;;;;;;;5008298;28;20053;-86
2022/09/09 11:43:17;;;;;;;2.00;0.60;;;;;;;;;;5005536;28;20415;-85
2022/09/09 11:45:43;;;;;;;3.30;0.50;;;;;;;;;;5006752;28;20046;-86
2022/09/09 11:48:44;;;;;;;2.45;0.82;;;;;;;;;;5008161;28;20096;-86
2022/09/09 11:51:26;;;;;;;1.23;0.30;;;;;;;;;;4989970;28;20033;-86
2022/09/09 11:53:54;;;;;;;2.50;0.40;;;;;;;;;;4983931;28;20460;-85
2022/09/09 11:56:34;;;;;;;1.65;0.43;;;;;;;;;;4999578;28;20058;-84
2022/09/09 11:59:16;;;;;;;1.92;0.47;;;;;;;;;;4991558;28;20042;-85
2022/09/09 12:01:42;;;;;;;3.03;0.68;;;;;;;;;;4989447;28;20525;-85
2022/09/09 12:04:23;;;;;;;2.15;0.35;;;;;;;;;;4993143;28;20129;-85
2022/09/09 12:07:08;;;;;;;2.95;0.60;;;;;;;;;;5006790;28;20038;-85
2022/09/09 12:09:48;;;;;;;2.63;0.75;;;;;;;;;;5006790;28;20044;-87
2022/09/09 12:12:13;;;;;;;2.08;0.45;;;;;;;;;;5004258;28;20045;-84
2022/09/09 12:14:43;;;;;;;3.53;0.60;;;;;;;;;;5014657;28;20041;-87
2022/09/09 12:17:14;;;;;;;1.88;0.57;;;;;;;;;;4997772;28;20037;-83
2022/09/09 12:19:39;;;;;;;1.85;0.68;;;;;;;;;;5006598;28;20061;-86
2022/09/09 12:22:09;;;;;;;3.20;0.55;;;;;;;;;;5000190;28;20034;-86
2022/09/09 12:24:41;;;;;;;2.38;0.40;;;;;;;;;;4996901;28;20489;-84
2022/09/09 12:27:10;;;;;;;2.83;0.50;;;;;;;;;;5006685;28;20038;-88
2022/09/09 12:29:52;;;;;;;2.05;0.40;;;;;;;;;;5022472;28;20029;-85
2022/09/09 12:32:23;;;;;;;2.47;0.40;;;;;;;;;;5005256;28;20038;-87
2022/09/09 12:35:21;;;;;;;2.90;0.60;;;;;;;;;;4990488;28;20034;-87
2022/09/09 12:37:59;;;;;;;3.60;0.47;;;;;;;;;;4959805;28;20049;-87
2022/09/09 12:40:27;;;;;;;3.08;0.50;;;;;;;;;;4991260;28;20049;-86
2022/09/09 12:42:55;;;;;;;4.80;0.85;;;;;;;;;;5003798;28;20137;-85
2022/09/09 12:45:31;;;;;;;1.40;0.40;;;;;;;;;;5005960;28;20574;-85
2022/09/09 12:48:11;;;;;;;3.55;0.43;;;;;;;;;;4985814;28;20120;-86
2022/09/09 12:50:42;;;;;;;5.30;0.80;;;;;;;;;;4989843;28;20433;-86
2022/09/09 12:53:15;;;;;;;2.22;0.40;;;;;;;;;;5005811;28;20042;-86
2022/09/09 12:55:50;;;;;;;2.08;0.50;;;;;;;;;;5005809;28;20034;-85
2022/09/09 12:58:17;;;;;;;3.72;0.68;;;;;;;;;;4982757;28;20045;-84
2022/09/09 13:00:51;;;;;;;1.60;0.55;;;;;;;;;;5005588;28;20079;-86
2022/09/09 13:03:20;;;;;;;3.42;0.45;;;;;;;;;;5006166;28;20037;-85
2022/09/09 13:05:46;;;;;;;2.25;0.40;;;;;;;;;;5005428;28;20046;-86
2022/09/09 13:08:13;;;;;;;2.27;0.60;;;;;;;;;;4984066;28;20041;-85
2022/09/09 13:11:00;;;;;;;3.80;0.50;;;;;;;;;;5000674;28;20071;-85
2022/09/09 13:13:35;;;;;;;2.58;0.70;;;;;;;;;;5001008;28;20030;-84
2022/09/09 13:16:02;;;;;;;4.10;0.80;;;;;;;;;;5005877;28;20037;-84
2022/09/09 13:18:33;;;;;;;1.73;0.40;;;;;;;;;;4989881;28;20436;-83
2022/09/09 13:20:58;;;;;;;3.03;0.57;;;;;;;;;;4993030;28;20088;-83
2022/09/09 13:23:29;;;;;;;3.25;0.60;;;;;;;;;;4991617;28;20034;-83
2022/09/09 13:25:55;;;;;;;4.93;0.60;;;;;;;;;;5005798;28;20117;-83
2022/09/09 13:28:24;;;;;;;4.65;0.65;;;;;;;;;;5008031;28;20406;-84
2022/09/09 13:30:59;;;;;;;3.67;0.75;;;;;;;;;;4987636;28;20061;-79
2022/09/09 13:33:33;;;;;;;2.67;0.60;;;;;;;;;;5009244;28;20425;-78
2022/09/09 13:36:04;;;;;;;2.75;0.60;;;;;;;;;;5006148;28;20032;-79
2022/09/09 13:38:34;;;;;;;3.75;0.70;;;;;;;;;;4995783;28;20032;-79
2022/09/09 13:41:08;;;;;;;2.05;0.60;;;;;;;;;;4990341;28;20057;-79
2022/09/09 13:43:45;;;;;;;3.58;0.82;;;;;;;;;;5007824;28;20109;-79
2022/09/09 13:46:42;;;;;;;5.07;0.77;;;;;;;;;;5022163;28;20048;-79
2022/09/09 13:49:11;;;;;;;3.72;0.68;;;;;;;;;;4983078;28;20381;-79
2022/09/09 13:51:39;;;;;;;3.40;0.70;;;;;;;;;;5007772;28;20064;-86
2022/09/09 13:54:09;;;;;;;2.58;0.70;;;;;;;;;;4990475;28;20034;-79
2022/09/09 13:56:36;;;;;;;2.90;0.70;;;;;;;;;;4980006;28;20120;-79
2022/09/09 13:59:04;;;;;;;3.72;0.70;;;;;;;;;;4989574;28;20727;-79
2022/09/09 14:01:29;;;;;;;2.33;0.40;;;;;;;;;;5006537;28;20057;-79
2022/09/09 14:03:56;;;;;;;3.97;0.68;;;;;;;;;;4992787;28;20120;-78
2022/09/09 14:06:24;;;;;;;4.53;0.75;;;;;;;;;;5011321;28;20443;-78
2022/09/09 14:08:50;;;;;;;4.07;0.90;;;;;;;;;;4996236;28;20489;-79
2022/09/09 14:11:18;;;;;;;2.75;0.70;;;;;;;;;;4994399;28;20096;-78
2022/09/09 14:13:43;;;;;;;;;;;;;;;;;;5011976;28;20124;-80
2022/09/09 14:16:09;;;;;;;2.40;0.50;;;;;;;;;;4994690;28;20000;-78
2022/09/09 14:18:35;;;;;;;2.60;0.50;;;;;;;;;;5010515;28;20034;-78
2022/09/09 14:21:03;;;;;;;3.33;0.65;;;;;;;;;;4983174;28;20044;-79
2022/09/09 14:23:29;;;;;;;2.67;0.68;;;;;;;;;;4995425;28;20029;-80
2022/09/09 14:25:55;;;;;;;4.50;0.80;;;;;;;;;;4993862;28;20037;-79
2022/09/09 14:28:21;;;;;;;3.17;0.60;;;;;;;;;;4993890;28;20055;-78
2022/09/09 14:30:46;;;;;;;2.58;0.63;;;;;;;;;;5011087;28;20025;-78
2022/09/09 14:33:14;;;;;;;2.95;0.60;;;;;;;;;;5007865;28;20033;-81
2022/09/09 14:35:44;;;;;;;3.05;0.60;;;;;;;;;;4993309;28;20087;-80
2022/09/09 14:38:10;;;;;;;3.15;0.75;;;;;;;;;;4981468;28;20037;-81
2022/09/09 14:40:36;;;;;;;3.38;0.60;;;;;;;;;;5028490;28;20075;-79
2022/09/09 14:43:02;;;;;;;2.22;0.60;;;;;;;;;;5029373;28;20095;-79
2022/09/09 14:45:28;;;;;;;4.78;0.70;;;;;;;;;;5027295;28;20045;-77
2022/09/09 14:47:55;;;;;;;3.38;0.85;;;;;;;;;;5029628;28;20041;-78
2022/09/09 14:50:21;;;;;;;1.88;0.70;;;;;;;;;;4994253;28;20116;-78
2022/09/09 14:52:47;;;;;;;2.17;0.60;;;;;;;;;;5010707;28;20037;-75
2022/09/09 14:55:14;;;;;;;2.17;0.60;;;;;;;;;;4993818;28;20041;-76
2022/09/09 14:57:40;;;;;;;;;;;;;;;;;;5030304;28;20057;-79
2022/09/09 15:00:07;;;;;;;3.90;0.70;;;;;;;;;;5026436;28;19975;-79
2022/09/09 15:02:34;;;;;;;3.22;0.60;;;;;;;;;;4994497;28;20819;-80
2022/09/09 15:05:00;;;;;;;2.42;0.52;;;;;;;;;;5003494;28;20526;-79